Time;durP1;ratioP1;P1;durP2;ratioP2;P2;SDS_P1;SDS_P2;PMS_P1;PMS_P2;Temp;Humidity;BMP_temperature;BMP_pressure;BME280_temperature;BME280_humidity;BME280_pressure;Samples;Min_cycle;Max_cycle;Signal;HPM_P1;HPM_P2
2022/07/10 00:01:54;;;;;;;;;;;18.90;72.50;;;;;;5073580;28;19913;-55
2022/07/10 00:04:20;;;;;;;;;;;18.80;73.10;;;;;;5073969;28;19916;-51
2022/07/10 00:06:46;;;;;;;;;;;18.80;73.10;;;;;;5074259;28;19944;-55
2022/07/10 00:09:15;;;;;;;;;;;18.80;73.40;;;;;;5074299;28;19912;-54
2022/07/10 00:11:41;;;;;;;;;;;18.70;73.10;;;;;;5073750;28;19912;-53
2022/07/10 00:14:07;;;;;;;;;;;18.70;73.30;;;;;;5074667;28;20342;-54
2022/07/10 00:16:32;;;;;;;;;;;18.70;73.50;;;;;;5073831;28;19908;-54
2022/07/10 00:18:58;;;;;;;;;;;18.60;73.20;;;;;;5073972;28;19926;-56
2022/07/10 00:21:23;;;;;;;;;;;18.60;74.00;;;;;;5074135;28;19909;-54
2022/07/10 00:23:49;;;;;;;;;;;18.60;74.00;;;;;;5073842;28;20019;-54
2022/07/10 00:26:14;;;;;;;;;;;18.60;73.80;;;;;;5074069;28;19908;-52
2022/07/10 00:28:40;;;;;;;;;;;18.60;74.00;;;;;;5074531;28;19908;-56
2022/07/10 00:31:05;;;;;;;;;;;18.50;74.80;;;;;;5073849;28;19908;-56
2022/07/10 00:33:32;;;;;;;;;;;18.50;74.50;;;;;;5073317;28;19947;-55
2022/07/10 00:35:58;;;;;;;;;;;18.50;75.00;;;;;;5067461;28;20364;-52
2022/07/10 00:38:23;;;;;;;;;;;18.40;75.40;;;;;;5073925;28;19912;-54
2022/07/10 00:40:49;;;;;;;;;;;18.40;75.30;;;;;;5066885;28;19961;-55
2022/07/10 00:43:14;;;;;;;;;;;18.40;75.30;;;;;;5074069;28;19935;-55
2022/07/10 00:45:40;;;;;;;;;;;18.40;75.50;;;;;;5074037;28;20365;-53
2022/07/10 00:48:05;;;;;;;;;;;18.40;75.80;;;;;;5073089;28;20290;-55
2022/07/10 00:50:31;;;;;;;;;;;18.40;75.10;;;;;;5073766;28;19912;-54
2022/07/10 00:52:56;;;;;;;;;;;18.40;75.80;;;;;;5073137;28;19962;-54
2022/07/10 00:55:22;;;;;;;;;;;18.40;76.50;;;;;;5073920;28;19913;-52
2022/07/10 00:57:48;;;;;;;;;;;18.30;75.80;;;;;;5072594;28;20388;-56
2022/07/10 01:00:14;;;;;;;;;;;18.30;75.80;;;;;;5073751;28;19922;-55
2022/07/10 01:02:43;;;;;;;;;;;18.30;76.30;;;;;;5073473;28;19913;-53
2022/07/10 01:05:09;;;;;;;;;;;18.20;76.90;;;;;;5073347;28;20365;-54
2022/07/10 01:07:34;;;;;;;;;;;18.20;76.90;;;;;;5053895;28;19916;-56
2022/07/10 01:10:01;;;;;;;;;;;18.00;77.60;;;;;;5069476;28;19935;-55
2022/07/10 01:12:27;;;;;;;;;;;18.00;78.30;;;;;;5073211;28;20360;-55
2022/07/10 01:14:53;;;;;;;;;;;18.00;78.30;;;;;;5072898;28;19915;-50
2022/07/10 01:17:19;;;;;;;;;;;17.90;78.30;;;;;;5072694;28;20418;-56
2022/07/10 01:19:45;;;;;;;;;;;17.90;78.60;;;;;;5073279;28;19909;-53
2022/07/10 01:22:10;;;;;;;;;;;17.80;78.50;;;;;;5073138;28;19970;-55
2022/07/10 01:24:36;;;;;;;;;;;17.80;78.70;;;;;;5066070;28;19920;-54
2022/07/10 01:27:02;;;;;;;;;;;17.80;79.30;;;;;;5073328;28;20266;-55
2022/07/10 01:29:28;;;;;;;;;;;17.80;79.30;;;;;;5072999;28;19918;-55
2022/07/10 01:31:53;;;;;;;;;;;17.80;79.40;;;;;;5072112;28;19912;-55
2022/07/10 01:34:19;;;;;;;;;;;17.80;79.40;;;;;;5073203;28;19916;-56
2022/07/10 01:36:45;;;;;;;;;;;17.80;78.90;;;;;;5072598;28;19919;-52
2022/07/10 01:39:10;;;;;;;;;;;17.70;79.30;;;;;;5072968;28;19916;-54
2022/07/10 01:41:36;;;;;;;;;;;17.80;79.50;;;;;;5072674;28;20369;-55
2022/07/10 01:44:01;;;;;;;;;;;17.70;79.40;;;;;;5072471;28;19921;-55
2022/07/10 01:46:27;;;;;;;;;;;17.60;80.10;;;;;;5071692;28;19908;-56
2022/07/10 01:48:53;;;;;;;;;;;17.60;79.90;;;;;;5072101;28;20002;-56
2022/07/10 01:51:19;;;;;;;;;;;17.60;80.20;;;;;;5072250;28;19909;-54
2022/07/10 01:53:44;;;;;;;;;;;17.50;80.20;;;;;;5072278;28;19915;-56
2022/07/10 01:56:11;;;;;;;;;;;17.50;80.30;;;;;;5071967;28;19915;-55
2022/07/10 01:58:36;;;;;;;;;;;17.40;80.40;;;;;;5072312;28;20324;-55
2022/07/10 02:01:02;;;;;;;;;;;17.50;80.50;;;;;;5068976;28;19970;-54
2022/07/10 02:06:12;;;;;;;;;;;17.40;80.00;;;;;;5072511;28;20282;-55
2022/07/10 02:08:38;;;;;;;;;;;17.40;80.50;;;;;;5072216;28;20373;-55
2022/07/10 02:11:04;;;;;;;;;;;17.40;80.20;;;;;;5072027;28;19920;-52
2022/07/10 02:13:29;;;;;;;;;;;17.30;80.40;;;;;;5071708;28;19915;-54
2022/07/10 02:15:55;;;;;;;;;;;17.30;80.50;;;;;;5063309;28;19913;-52
2022/07/10 02:18:20;;;;;;;;;;;17.30;80.50;;;;;;5069423;28;19954;-55
2022/07/10 02:20:46;;;;;;;;;;;17.30;80.50;;;;;;5072033;28;20485;-55
2022/07/10 02:23:12;;;;;;;;;;;17.30;80.30;;;;;;5072001;28;20420;-55
2022/07/10 02:25:37;;;;;;;;;;;17.30;80.70;;;;;;5071805;28;19920;-56
2022/07/10 02:28:03;;;;;;;;;;;17.30;80.40;;;;;;5071124;28;19916;-54
2022/07/10 02:30:28;;;;;;;;;;;17.20;80.30;;;;;;5071805;28;19944;-56
2022/07/10 02:32:54;;;;;;;;;;;17.20;81.20;;;;;;5071904;28;19949;-53
2022/07/10 02:35:19;;;;;;;;;;;17.20;80.50;;;;;;5071821;28;19915;-56
2022/07/10 02:37:45;;;;;;;;;;;17.10;80.60;;;;;;5070753;28;19908;-56
2022/07/10 02:40:10;;;;;;;;;;;17.10;80.50;;;;;;5067996;28;19944;-55
2022/07/10 02:42:36;;;;;;;;;;;17.10;80.70;;;;;;5071411;28;19908;-56
2022/07/10 02:45:02;;;;;;;;;;;17.00;81.10;;;;;;5071331;28;19917;-57
2022/07/10 02:47:27;;;;;;;;;;;16.90;81.20;;;;;;5064675;28;19924;-56
2022/07/10 02:49:53;;;;;;;;;;;16.90;81.70;;;;;;5071224;28;19909;-54
2022/07/10 02:52:18;;;;;;;;;;;16.90;81.80;;;;;;5071741;28;19997;-56
2022/07/10 02:54:43;;;;;;;;;;;16.90;81.70;;;;;;5069451;28;19925;-55
2022/07/10 02:57:09;;;;;;;;;;;16.80;81.60;;;;;;5070821;28;19912;-53
2022/07/10 02:59:34;;;;;;;;;;;16.80;81.20;;;;;;5071293;28;20296;-55
2022/07/10 03:02:00;;;;;;;;;;;16.90;81.40;;;;;;5071156;28;19915;-55
2022/07/10 03:04:26;;;;;;;;;;;16.80;81.70;;;;;;5071124;28;19917;-56
2022/07/10 03:06:51;;;;;;;;;;;16.80;82.30;;;;;;5071389;28;19985;-55
2022/07/10 03:09:17;;;;;;;;;;;16.80;81.90;;;;;;5070531;28;19908;-55
2022/07/10 03:11:42;;;;;;;;;;;16.70;81.90;;;;;;5070607;28;19916;-52
2022/07/10 03:14:08;;;;;;;;;;;16.80;82.20;;;;;;5068524;28;19916;-54
2022/07/10 03:16:33;;;;;;;;;;;16.70;82.60;;;;;;5071410;28;19940;-55
2022/07/10 03:18:59;;;;;;;;;;;16.80;82.30;;;;;;5070980;28;20373;-54
2022/07/10 03:21:24;;;;;;;;;;;16.80;82.30;;;;;;5070827;28;19919;-55
2022/07/10 03:23:50;;;;;;;;;;;16.80;82.40;;;;;;5071099;28;19924;-55
2022/07/10 03:26:15;;;;;;;;;;;16.80;82.90;;;;;;5070668;28;19913;-55
2022/07/10 03:28:41;;;;;;;;;;;16.70;82.70;;;;;;5070656;28;20384;-53
2022/07/10 03:31:07;;;;;;;;;;;16.80;83.00;;;;;;5070973;28;19947;-53
2022/07/10 03:33:33;;;;;;;;;;;16.70;82.80;;;;;;5063926;28;19922;-56
2022/07/10 03:36:01;;;;;;;;;;;16.70;83.30;;;;;;5071181;28;19912;-54
2022/07/10 03:38:26;;;;;;;;;;;16.70;83.50;;;;;;5064381;28;20301;-53
2022/07/10 03:40:52;;;;;;;;;;;16.60;83.40;;;;;;5069063;28;19916;-54
2022/07/10 03:43:18;;;;;;;;;;;16.60;83.50;;;;;;5070523;28;19908;-55
2022/07/10 03:45:43;;;;;;;;;;;16.60;83.80;;;;;;5071060;28;19908;-55
2022/07/10 03:48:09;;;;;;;;;;;16.60;83.90;;;;;;5070444;28;19982;-55
2022/07/10 03:50:34;;;;;;;;;;;16.50;84.50;;;;;;5070638;28;19915;-53
2022/07/10 03:53:00;;;;;;;;;;;16.50;84.10;;;;;;5070672;28;19920;-51
2022/07/10 03:55:26;;;;;;;;;;;16.50;84.50;;;;;;5070348;28;19912;-54
2022/07/10 03:57:54;;;;;;;;;;;16.50;84.30;;;;;;5070401;28;19909;-51
2022/07/10 04:00:21;;;;;;;;;;;16.50;84.50;;;;;;5070479;28;20357;-55
2022/07/10 04:02:48;;;;;;;;;;;16.50;84.40;;;;;;5070634;28;19920;-55
2022/07/10 04:05:13;;;;;;;;;;;16.50;84.30;;;;;;5070277;28;19921;-53
2022/07/10 04:07:39;;;;;;;;;;;16.50;84.80;;;;;;5070550;28;19919;-55
2022/07/10 04:10:04;;;;;;;;;;;16.40;85.10;;;;;;5070097;28;19916;-56
2022/07/10 04:12:30;;;;;;;;;;;16.40;85.10;;;;;;5070182;28;19925;-55
2022/07/10 04:14:56;;;;;;;;;;;16.40;85.00;;;;;;5070738;28;19933;-55
2022/07/10 04:17:22;;;;;;;;;;;16.40;85.20;;;;;;5070489;28;20284;-54
2022/07/10 04:19:47;;;;;;;;;;;16.40;85.20;;;;;;5070491;28;19913;-55
2022/07/10 04:22:13;;;;;;;;;;;16.40;85.30;;;;;;5070113;28;20403;-56
2022/07/10 04:24:39;;;;;;;;;;;16.40;85.50;;;;;;5069822;28;20018;-54
2022/07/10 04:27:04;;;;;;;;;;;16.40;85.50;;;;;;5071127;28;19917;-55
2022/07/10 04:29:31;;;;;;;;;;;16.40;85.50;;;;;;5055774;28;19937;-51
2022/07/10 04:31:56;;;;;;;;;;;16.40;85.50;;;;;;5074122;28;20380;-53
2022/07/10 04:34:22;;;;;;;;;;;16.40;85.40;;;;;;5073999;28;20545;-56
2022/07/10 04:36:47;;;;;;;;;;;16.40;85.60;;;;;;5073719;28;19919;-55
2022/07/10 04:39:13;;;;;;;;;;;16.40;85.70;;;;;;5073227;28;19909;-55
2022/07/10 04:41:38;;;;;;;;;;;16.40;85.60;;;;;;5074235;28;19958;-55
2022/07/10 04:44:04;;;;;;;;;;;16.40;85.70;;;;;;5073556;28;19932;-54
2022/07/10 04:46:29;;;;;;;;;;;16.50;85.70;;;;;;5073595;28;19908;-52
2022/07/10 04:48:55;;;;;;;;;;;16.40;86.00;;;;;;5073602;28;19924;-55
2022/07/10 04:51:20;;;;;;;;;;;16.40;86.00;;;;;;5066759;28;19951;-50
2022/07/10 04:53:46;;;;;;;;;;;16.40;86.00;;;;;;5073462;28;19916;-56
2022/07/10 04:56:11;;;;;;;;;;;16.50;85.70;;;;;;5073044;28;19908;-52
2022/07/10 04:58:37;;;;;;;;;;;16.50;86.20;;;;;;5072989;28;20399;-51
2022/07/10 05:01:02;;;;;;;;;;;16.40;86.40;;;;;;5073009;28;19918;-56
2022/07/10 05:03:28;;;;;;;;;;;16.40;86.40;;;;;;5073084;28;19913;-57
2022/07/10 05:05:54;;;;;;;;;;;16.40;86.60;;;;;;5072937;28;19934;-56
2022/07/10 05:08:19;;;;;;;;;;;16.50;86.40;;;;;;5072881;28;19908;-56
2022/07/10 05:10:45;;;;;;;;;;;16.50;85.90;;;;;;5072713;28;19908;-56
2022/07/10 05:13:12;;;;;;;;;;;16.60;85.90;;;;;;5072898;28;19999;-55
2022/07/10 05:15:38;;;;;;;;;;;16.60;86.30;;;;;;5072907;28;19962;-56
2022/07/10 05:18:04;;;;;;;;;;;16.70;85.90;;;;;;5072764;28;19924;-56
2022/07/10 05:20:29;;;;;;;;;;;16.70;85.80;;;;;;5073383;28;20373;-56
2022/07/10 05:22:55;;;;;;;;;;;16.80;85.80;;;;;;5072295;28;19916;-56
2022/07/10 05:25:20;;;;;;;;;;;16.80;85.70;;;;;;5054266;28;20004;-55
2022/07/10 05:27:46;;;;;;;;;;;16.80;85.40;;;;;;5072818;28;19908;-56
2022/07/10 05:30:11;;;;;;;;;;;16.90;85.50;;;;;;5072495;28;19912;-55
2022/07/10 05:32:43;;;;;;;;;;;16.90;85.60;;;;;;5065634;28;19920;-54
2022/07/10 05:35:09;;;;;;;;;;;17.00;85.60;;;;;;5072300;28;20015;-55
2022/07/10 05:37:34;;;;;;;;;;;17.00;85.30;;;;;;5072319;28;20003;-56
2022/07/10 05:40:00;;;;;;;;;;;17.00;85.40;;;;;;5069325;28;20373;-54
2022/07/10 05:42:25;;;;;;;;;;;16.90;85.30;;;;;;5071687;28;19920;-55
2022/07/10 05:44:51;;;;;;;;;;;17.00;85.50;;;;;;5072568;28;20014;-55
2022/07/10 05:47:16;;;;;;;;;;;17.00;85.30;;;;;;5072018;28;19916;-55
2022/07/10 05:49:42;;;;;;;;;;;17.10;85.50;;;;;;5072325;28;19951;-56
2022/07/10 05:52:08;;;;;;;;;;;17.00;85.10;;;;;;5071628;28;19908;-56
2022/07/10 05:54:33;;;;;;;;;;;17.00;85.20;;;;;;5071558;28;20300;-55
2022/07/10 05:56:58;;;;;;;;;;;17.00;85.10;;;;;;5072370;28;20051;-55
2022/07/10 05:59:24;;;;;;;;;;;17.00;85.30;;;;;;5066500;28;19912;-53
2022/07/10 06:01:49;;;;;;;;;;;17.00;85.30;;;;;;5071929;28;19912;-55
2022/07/10 06:04:15;;;;;;;;;;;17.00;85.00;;;;;;5071811;28;19917;-56
2022/07/10 06:06:40;;;;;;;;;;;17.00;85.00;;;;;;5071249;28;20500;-55
2022/07/10 06:09:06;;;;;;;;;;;17.00;85.20;;;;;;5053890;28;19909;-54
2022/07/10 06:11:32;;;;;;;;;;;17.00;85.00;;;;;;5064948;28;20327;-54
2022/07/10 06:13:57;;;;;;;;;;;17.00;84.90;;;;;;5071643;28;19931;-55
2022/07/10 06:16:22;;;;;;;;;;;17.10;84.80;;;;;;5072002;28;20007;-55
2022/07/10 06:18:48;;;;;;;;;;;17.00;84.70;;;;;;5068927;28;19931;-56
2022/07/10 06:21:13;;;;;;;;;;;17.10;84.90;;;;;;5071465;28;19954;-55
2022/07/10 06:23:39;;;;;;;;;;;17.10;84.60;;;;;;5071406;28;20287;-54
2022/07/10 06:26:04;;;;;;;;;;;17.10;84.50;;;;;;5071549;28;19923;-55
2022/07/10 06:28:30;;;;;;;;;;;17.10;84.40;;;;;;5066983;28;20355;-56
2022/07/10 06:30:55;;;;;;;;;;;17.10;84.30;;;;;;5071700;28;20392;-54
2022/07/10 06:33:21;;;;;;;;;;;17.10;84.90;;;;;;5071605;28;19912;-55
2022/07/10 06:35:47;;;;;;;;;;;17.00;84.10;;;;;;5070935;28;19909;-56
2022/07/10 06:38:12;;;;;;;;;;;17.10;84.20;;;;;;5071408;28;19908;-56
2022/07/10 06:40:38;;;;;;;;;;;17.10;84.10;;;;;;5068451;28;19952;-56
2022/07/10 06:43:03;;;;;;;;;;;17.20;84.10;;;;;;5041559;28;19999;-56
2022/07/10 06:45:30;;;;;;;;;;;17.20;83.70;;;;;;5071477;28;20507;-56
2022/07/10 06:47:55;;;;;;;;;;;17.30;83.70;;;;;;5068394;28;19960;-52
2022/07/10 06:50:21;;;;;;;;;;;17.30;83.40;;;;;;5070689;28;20348;-55
2022/07/10 06:52:47;;;;;;;;;;;17.40;83.30;;;;;;5070976;28;19916;-55
2022/07/10 06:55:13;;;;;;;;;;;17.30;82.80;;;;;;5066903;28;19909;-55
2022/07/10 06:57:39;;;;;;;;;;;17.40;82.70;;;;;;5071332;28;20372;-54
2022/07/10 07:00:05;;;;;;;;;;;17.40;82.70;;;;;;5071581;28;20358;-54
2022/07/10 07:02:31;;;;;;;;;;;17.40;82.50;;;;;;5069958;28;19908;-54
2022/07/10 07:04:56;;;;;;;;;;;17.50;82.50;;;;;;5065634;28;19916;-54
2022/07/10 07:07:22;;;;;;;;;;;17.50;81.60;;;;;;5070986;28;20293;-55
2022/07/10 07:09:49;;;;;;;;;;;17.40;80.80;;;;;;5070951;28;19998;-55
2022/07/10 07:12:15;;;;;;;;;;;17.40;81.00;;;;;;5067527;28;20395;-52
2022/07/10 07:14:41;;;;;;;;;;;17.40;80.90;;;;;;5067159;28;19999;-56
2022/07/10 07:17:08;;;;;;;;;;;17.50;80.80;;;;;;5070948;28;19988;-56
2022/07/10 07:25:04;;;;;;;;;;;17.60;80.80;;;;;;5070917;28;19924;-55
2022/07/10 07:27:29;;;;;;;;;;;17.60;80.40;;;;;;5066033;28;19908;-58
2022/07/10 07:29:55;;;;;;;;;;;17.70;80.30;;;;;;5066733;28;19916;-55
2022/07/10 07:32:20;;;;;;;;;;;17.80;80.20;;;;;;5067805;28;20281;-58
2022/07/10 07:34:45;;;;;;;;;;;17.80;79.80;;;;;;5068287;28;19913;-57
2022/07/10 07:37:11;;;;;;;;;;;17.90;79.80;;;;;;5067275;28;19991;-55
2022/07/10 07:39:37;;;;;;;;;;;17.90;79.20;;;;;;5070537;28;19915;-55
2022/07/10 07:42:03;;;;;;;;;;;17.90;78.70;;;;;;5070488;28;19909;-54
2022/07/10 07:44:29;;;;;;;;;;;17.90;77.90;;;;;;5068950;28;20575;-56
2022/07/10 07:46:55;;;;;;;;;;;18.00;78.10;;;;;;5070420;28;19995;-54
2022/07/10 07:49:21;;;;;;;;;;;18.00;77.90;;;;;;5070180;28;19920;-55
2022/07/10 07:51:47;;;;;;;;;;;18.00;78.30;;;;;;5070436;28;20007;-53
2022/07/10 07:54:12;;;;;;;;;;;18.10;78.50;;;;;;5070771;28;19908;-54
2022/07/10 07:56:38;;;;;;;;;;;18.20;78.80;;;;;;5066405;28;19916;-53
2022/07/10 07:59:04;;;;;;;;;;;18.20;77.90;;;;;;5067411;28;19936;-53
2022/07/10 08:01:29;;;;;;;;;;;18.30;78.00;;;;;;5070457;28;19909;-67
2022/07/10 08:03:55;;;;;;;;;;;18.20;77.60;;;;;;5073697;28;19920;-58
2022/07/10 08:06:21;;;;;;;;;;;18.30;78.10;;;;;;5074393;28;19915;-58
2022/07/10 08:08:46;;;;;;;;;;;18.40;78.10;;;;;;5073917;28;19995;-57
2022/07/10 08:11:12;;;;;;;;;;;18.40;77.80;;;;;;5073585;28;19912;-60
2022/07/10 08:13:37;;;;;;;;;;;18.50;77.80;;;;;;5082882;28;20359;-57
2022/07/10 08:16:03;;;;;;;;;;;18.50;77.90;;;;;;5081676;28;19969;-60
2022/07/10 08:18:28;;;;;;;;;;;18.70;77.30;;;;;;5081922;28;20327;-59
2022/07/10 08:20:54;;;;;;;;;;;18.70;77.40;;;;;;5083257;28;19909;-59
2022/07/10 08:23:19;;;;;;;;;;;18.80;77.40;;;;;;5076915;28;20054;-60
2022/07/10 08:25:45;;;;;;;;;;;18.70;76.30;;;;;;5073948;28;19915;-60
2022/07/10 08:28:11;;;;;;;;;;;18.80;76.00;;;;;;5073885;28;19913;-60
2022/07/10 08:30:37;;;;;;;;;;;18.90;75.40;;;;;;5074677;28;20295;-59
2022/07/10 08:33:03;;;;;;;;;;;18.90;74.60;;;;;;5046282;28;19916;-60
2022/07/10 08:35:30;;;;;;;;;;;18.90;74.60;;;;;;5069776;28;19919;-60
2022/07/10 08:37:55;;;;;;;;;;;19.00;74.60;;;;;;5071128;28;20001;-59
2022/07/10 08:40:21;;;;;;;;;;;19.00;74.10;;;;;;5071953;28;19952;-61
2022/07/10 08:42:47;;;;;;;;;;;19.10;74.20;;;;;;5071502;28;20019;-60
2022/07/10 08:45:13;;;;;;;;;;;19.10;74.20;;;;;;5070927;28;19927;-60
2022/07/10 08:47:41;;;;;;;;;;;19.20;73.10;;;;;;5071488;28;19927;-59
2022/07/10 08:50:25;;;;;;;;;;;19.20;73.70;;;;;;5070680;28;20032;-58
2022/07/10 08:52:55;;;;;;;;;;;19.30;73.30;;;;;;5068455;28;19913;-58
2022/07/10 08:55:23;;;;;;;;;;;19.30;72.40;;;;;;5070558;28;19912;-58
2022/07/10 08:57:50;;;;;;;;;;;19.40;72.50;;;;;;5070818;28;19917;-58
2022/07/10 09:00:16;;;;;;;;;;;19.40;72.30;;;;;;5070410;28;19930;-57
2022/07/10 09:02:42;;;;;;;;;;;19.50;72.00;;;;;;5071005;28;19977;-59
2022/07/10 09:05:08;;;;;;;;;;;19.50;71.50;;;;;;5071508;28;19924;-59
2022/07/10 09:07:35;;;;;;;;;;;19.50;71.00;;;;;;5071303;28;20388;-59
2022/07/10 09:10:05;;;;;;;;;;;19.50;71.60;;;;;;5070416;28;19951;-58
2022/07/10 09:12:48;;;;;;;;;;;19.60;71.20;;;;;;5069719;28;19920;-58
2022/07/10 09:15:17;;;;;;;;;;;19.60;70.70;;;;;;5070423;28;19912;-57
2022/07/10 09:17:53;;;;;;;;;;;19.70;70.60;;;;;;5068324;28;19912;-57
2022/07/10 09:20:26;;;;;;;;;;;19.80;70.10;;;;;;5051593;28;20340;-58
2022/07/10 09:22:52;;;;;;;;;;;19.80;70.20;;;;;;5051802;28;19966;-58
2022/07/10 09:25:18;;;;;;;;;;;19.90;69.50;;;;;;5070471;28;19920;-59
2022/07/10 09:27:56;;;;;;;;;;;19.90;69.50;;;;;;5070891;28;20015;-59
2022/07/10 09:30:35;;;;;;;;;;;20.00;68.50;;;;;;5069516;28;19923;-59
2022/07/10 09:33:22;;;;;;;;;;;20.00;68.90;;;;;;5069986;28;19966;-59
2022/07/10 09:38:44;;;;;;;;;;;20.20;69.40;;;;;;5068979;28;19913;-57
2022/07/10 09:41:21;;;;;;;;;;;20.30;69.00;;;;;;5069859;28;19916;-57
2022/07/10 09:43:47;;;;;;;;;;;20.30;69.50;;;;;;5066978;28;19920;-57
2022/07/10 09:46:12;;;;;;;;;;;20.40;68.50;;;;;;5078188;28;19969;-57
2022/07/10 09:48:38;;;;;;;;;;;20.40;69.00;;;;;;5072456;28;19924;-57
2022/07/10 09:51:10;;;;;;;;;;;20.40;68.60;;;;;;5070544;28;19913;-57
2022/07/10 09:53:38;;;;;;;;;;;20.40;68.30;;;;;;5070082;28;19923;-57
2022/07/10 09:56:06;;;;;;;;;;;20.50;67.60;;;;;;5071073;28;19920;-59
2022/07/10 09:58:32;;;;;;;;;;;20.50;67.40;;;;;;5069466;28;19912;-57
2022/07/10 10:00:58;;;;;;;;;;;20.50;68.00;;;;;;5069902;28;19992;-57
2022/07/10 10:03:24;;;;;;;;;;;20.60;67.90;;;;;;5069512;28;20451;-59
2022/07/10 10:05:53;;;;;;;;;;;20.60;67.70;;;;;;5068315;28;19920;-59
2022/07/10 10:08:21;;;;;;;;;;;20.70;67.50;;;;;;5070016;28;19912;-58
2022/07/10 10:10:48;;;;;;;;;;;20.70;67.30;;;;;;5068800;28;19989;-59
2022/07/10 10:13:18;;;;;;;;;;;20.60;67.00;;;;;;5069094;28;19913;-57
2022/07/10 10:15:44;;;;;;;;;;;20.70;67.40;;;;;;5065906;28;19922;-58
2022/07/10 10:18:10;;;;;;;;;;;20.70;67.20;;;;;;5067575;28;19955;-57
2022/07/10 10:20:41;;;;;;;;;;;20.70;67.50;;;;;;5069661;28;20309;-57
2022/07/10 10:23:15;;;;;;;;;;;20.90;67.10;;;;;;5068219;28;19920;-59
2022/07/10 10:25:40;;;;;;;;;;;20.90;66.90;;;;;;5067631;28;19924;-60
2022/07/10 10:28:07;;;;;;;;;;;21.00;66.50;;;;;;5069126;28;19923;-56
2022/07/10 10:30:37;;;;;;;;;;;21.00;66.30;;;;;;5069690;28;19938;-55
2022/07/10 10:33:03;;;;;;;;;;;21.00;66.70;;;;;;5064907;28;22472;-59
2022/07/10 10:35:46;;;;;;;;;;;21.10;66.50;;;;;;5069536;28;19912;-59
2022/07/10 10:38:12;;;;;;;;;;;21.10;66.90;;;;;;5069075;28;19920;-59
2022/07/10 10:40:38;;;;;;;;;;;21.20;66.90;;;;;;5066071;28;19935;-57
2022/07/10 10:43:23;;;;;;;;;;;21.30;66.90;;;;;;5068643;28;19923;-60
2022/07/10 10:45:49;;;;;;;;;;;21.30;66.50;;;;;;5068434;28;20397;-60
2022/07/10 10:48:20;;;;;;;;;;;21.40;66.80;;;;;;5066611;28;20465;-60
2022/07/10 10:50:46;;;;;;;;;;;21.40;67.00;;;;;;5068868;28;20396;-58
2022/07/10 10:53:22;;;;;;;;;;;21.50;66.00;;;;;;5068226;28;19969;-58
2022/07/10 10:56:17;;;;;;;;;;;21.50;65.80;;;;;;5064909;28;20285;-59
2022/07/10 10:58:44;;;;;;;;;;;21.40;65.20;;;;;;5050307;28;19913;-59
2022/07/10 11:01:28;;;;;;;;;;;21.30;65.60;;;;;;5064828;28;19955;-58
2022/07/10 11:04:03;;;;;;;;;;;21.40;65.50;;;;;;5067702;28;19924;-59
2022/07/10 11:06:38;;;;;;;;;;;21.30;65.40;;;;;;5069031;28;19912;-58
2022/07/10 11:09:21;;;;;;;;;;;21.40;65.70;;;;;;5068111;28;19943;-59
2022/07/10 11:11:57;;;;;;;;;;;21.40;66.10;;;;;;5065672;28;19919;-58
2022/07/10 11:14:27;;;;;;;;;;;21.50;65.90;;;;;;5067578;28;19913;-57
2022/07/10 11:16:53;;;;;;;;;;;21.50;65.80;;;;;;5066861;28;19920;-56
2022/07/10 11:19:20;;;;;;;;;;;21.60;65.40;;;;;;5068341;28;19920;-53
2022/07/10 11:21:47;;;;;;;;;;;21.60;65.60;;;;;;5068604;28;19917;-56
2022/07/10 11:24:33;;;;;;;;;;;21.70;65.50;;;;;;5068223;28;19921;-56
2022/07/10 11:27:04;;;;;;;;;;;21.70;65.40;;;;;;5066010;28;19916;-55
2022/07/10 11:29:35;;;;;;;;;;;21.70;65.70;;;;;;5067321;28;19913;-61
2022/07/10 11:32:02;;;;;;;;;;;21.70;65.40;;;;;;5068049;28;19919;-59
2022/07/10 11:34:34;;;;;;;;;;;21.70;65.50;;;;;;5068670;28;20264;-58
2022/07/10 11:37:00;;;;;;;;;;;21.80;65.90;;;;;;5073579;28;19908;-59
2022/07/10 11:39:26;;;;;;;;;;;21.90;65.60;;;;;;5068987;28;19920;-58
2022/07/10 11:41:52;;;;;;;;;;;21.90;66.00;;;;;;5072574;28;19909;-58
2022/07/10 11:44:20;;;;;;;;;;;21.90;65.80;;;;;;5072597;28;19920;-58
2022/07/10 11:46:48;;;;;;;;;;;22.10;65.20;;;;;;5067927;28;20422;-57
2022/07/10 11:49:14;;;;;;;;;;;22.10;65.40;;;;;;5071951;28;19921;-58
2022/07/10 11:51:40;;;;;;;;;;;22.10;65.20;;;;;;5072260;28;19916;-58
2022/07/10 11:54:11;;;;;;;;;;;22.20;65.00;;;;;;5071548;28;19920;-58
2022/07/10 11:56:39;;;;;;;;;;;22.20;65.20;;;;;;5067419;28;19958;-57
2022/07/10 11:59:05;;;;;;;;;;;22.20;64.90;;;;;;5072363;28;19916;-57
2022/07/10 12:01:35;;;;;;;;;;;22.20;64.50;;;;;;5072081;28;19920;-56
2022/07/10 12:04:04;;;;;;;;;;;22.20;65.20;;;;;;5071403;28;19943;-59
2022/07/10 12:06:31;;;;;;;;;;;22.30;64.80;;;;;;5070583;28;19916;-58
2022/07/10 12:09:00;;;;;;;;;;;22.30;65.40;;;;;;5070994;28;19912;-58
2022/07/10 12:11:26;;;;;;;;;;;22.50;65.00;;;;;;5075020;28;19952;-58
2022/07/10 12:13:53;;;;;;;;;;;22.50;65.10;;;;;;5080592;28;19943;-58
2022/07/10 12:16:19;;;;;;;;;;;22.60;64.80;;;;;;5077160;28;19924;-59
2022/07/10 12:18:45;;;;;;;;;;;22.60;64.60;;;;;;5076491;28;19918;-59
2022/07/10 12:21:12;;;;;;;;;;;22.60;64.80;;;;;;5070820;28;19913;-58
2022/07/10 12:23:40;;;;;;;;;;;22.60;64.80;;;;;;5071396;28;19970;-59
2022/07/10 12:26:10;;;;;;;;;;;22.60;64.70;;;;;;5071198;28;19917;-58
2022/07/10 12:28:49;;;;;;;;;;;22.70;64.50;;;;;;5070571;28;19913;-59
2022/07/10 12:31:19;;;;;;;;;;;22.70;64.10;;;;;;5069718;28;19913;-59
2022/07/10 12:33:49;;;;;;;;;;;22.70;64.10;;;;;;5069725;28;19920;-62
2022/07/10 12:36:15;;;;;;;;;;;22.80;64.30;;;;;;5057845;28;20372;-58
2022/07/10 12:38:40;;;;;;;;;;;22.80;64.30;;;;;;5075722;28;20000;-59
2022/07/10 12:41:06;;;;;;;;;;;22.90;64.00;;;;;;5072131;28;19952;-58
2022/07/10 12:43:31;;;;;;;;;;;22.90;64.00;;;;;;5071392;28;20261;-59
2022/07/10 12:46:10;;;;;;;;;;;22.90;64.70;;;;;;5042678;28;19981;-58
2022/07/10 12:48:36;;;;;;;;;;;23.00;65.40;;;;;;5069595;28;20416;-58
2022/07/10 12:51:20;;;;;;;;;;;23.00;64.30;;;;;;5071123;28;19916;-58
2022/07/10 12:53:46;;;;;;;;;;;23.10;64.30;;;;;;5071173;28;20257;-59
2022/07/10 12:56:26;;;;;;;;;;;23.10;63.70;;;;;;5068243;28;19912;-59
2022/07/10 12:58:52;;;;;;;;;;;23.00;63.90;;;;;;5070038;28;20332;-57
2022/07/10 13:01:17;;;;;;;;;;;23.00;63.70;;;;;;5070336;28;19912;-58
2022/07/10 13:03:43;;;;;;;;;;;23.00;63.90;;;;;;5070950;28;19919;-58
2022/07/10 13:06:25;;;;;;;;;;;23.00;64.00;;;;;;5070315;28;19925;-58
2022/07/10 13:08:50;;;;;;;;;;;23.10;64.40;;;;;;5070657;28;19916;-59
2022/07/10 13:11:16;;;;;;;;;;;23.20;63.60;;;;;;5044751;28;19924;-59
2022/07/10 13:13:41;;;;;;;;;;;23.20;63.90;;;;;;5071291;28;19920;-57
2022/07/10 13:16:08;;;;;;;;;;;23.30;63.20;;;;;;5068796;28;19917;-55
2022/07/10 13:18:33;;;;;;;;;;;23.30;63.30;;;;;;5070592;28;19920;-57
2022/07/10 13:20:59;;;;;;;;;;;23.30;63.10;;;;;;5069644;28;19913;-57
2022/07/10 13:23:25;;;;;;;;;;;23.40;63.50;;;;;;5070224;28;19923;-57
2022/07/10 13:25:54;;;;;;;;;;;23.40;63.30;;;;;;5070345;28;20032;-57
2022/07/10 13:28:20;;;;;;;;;;;23.40;63.20;;;;;;5070448;28;19971;-58
2022/07/10 13:30:46;;;;;;;;;;;23.50;62.70;;;;;;5068121;28;19955;-59
2022/07/10 13:33:11;;;;;;;;;;;23.40;63.00;;;;;;5069832;28;20359;-58
2022/07/10 13:35:37;;;;;;;;;;;23.50;62.70;;;;;;5067098;28;19985;-58
2022/07/10 13:38:03;;;;;;;;;;;23.50;62.80;;;;;;5069375;28;20341;-58
2022/07/10 13:40:30;;;;;;;;;;;23.60;62.30;;;;;;5069889;28;19917;-56
2022/07/10 13:42:56;;;;;;;;;;;23.60;62.80;;;;;;5070343;28;19955;-58
2022/07/10 13:45:22;;;;;;;;;;;23.60;62.40;;;;;;5069051;28;20404;-56
2022/07/10 13:47:48;;;;;;;;;;;23.70;62.20;;;;;;5067078;28;19974;-58
2022/07/10 13:50:14;;;;;;;;;;;23.70;62.00;;;;;;5069609;28;19917;-57
2022/07/10 13:52:39;;;;;;;;;;;23.60;62.60;;;;;;5074795;28;19999;-57
2022/07/10 13:55:06;;;;;;;;;;;23.70;62.20;;;;;;5068071;28;19917;-56
2022/07/10 13:57:32;;;;;;;;;;;23.80;62.00;;;;;;5070631;28;19917;-56
2022/07/10 13:59:58;;;;;;;;;;;23.90;61.80;;;;;;5067865;28;20437;-56
2022/07/10 14:02:23;;;;;;;;;;;23.90;61.90;;;;;;5070021;28;20011;-55
2022/07/10 14:04:49;;;;;;;;;;;23.90;61.70;;;;;;5068201;28;19974;-57
2022/07/10 14:07:14;;;;;;;;;;;23.90;61.90;;;;;;5069906;28;19913;-58
2022/07/10 14:09:40;;;;;;;;;;;23.90;61.90;;;;;;5069047;28;20512;-59
2022/07/10 14:12:06;;;;;;;;;;;24.00;61.80;;;;;;5066905;28;19920;-58
2022/07/10 14:14:31;;;;;;;;;;;24.00;61.60;;;;;;5069818;28;19988;-58
2022/07/10 14:16:56;;;;;;;;;;;24.10;61.10;;;;;;5071670;28;19999;-59
2022/07/10 14:19:22;;;;;;;;;;;24.10;61.90;;;;;;5068438;28;19923;-56
2022/07/10 14:21:47;;;;;;;;;;;24.10;61.20;;;;;;5069413;28;19924;-55
2022/07/10 14:24:13;;;;;;;;;;;24.10;60.90;;;;;;5065552;28;19927;-58
2022/07/10 14:26:38;;;;;;;;;;;24.10;61.30;;;;;;5069720;28;20307;-57